createdAt,value
2023-01-05T00:01:39.267Z,93.22
2023-01-05T00:04:06.559Z,93.24
2023-01-05T00:06:34.787Z,92.34
2023-01-05T00:09:01.619Z,92.74
2023-01-05T00:11:47.362Z,92.12
2023-01-05T00:14:35.083Z,91.82
2023-01-05T00:17:20.570Z,91.24
2023-01-05T00:20:05.508Z,90.75
2023-01-05T00:22:34.937Z,90.88
2023-01-05T00:25:11.799Z,90.89
2023-01-05T00:27:41.666Z,90.14
2023-01-05T00:30:09.671Z,90.11
2023-01-05T00:32:36.079Z,90.69
2023-01-05T00:35:02.601Z,90.66
2023-01-05T00:37:32.582Z,90.81
2023-01-05T00:39:59.553Z,91.12
2023-01-05T00:42:26.000Z,91.25
2023-01-05T00:44:52.566Z,90.91
2023-01-05T00:47:18.979Z,91.13
2023-01-05T00:49:45.435Z,90.86
2023-01-05T00:52:11.886Z,89.75
2023-01-05T00:54:38.442Z,89.61
2023-01-05T00:57:07.227Z,88.92
2023-01-05T00:59:33.799Z,88.84
2023-01-05T01:02:00.537Z,87.87
2023-01-05T01:04:27.178Z,87.86
2023-01-05T01:06:54.753Z,88.01
2023-01-05T01:09:21.608Z,87.84
2023-01-05T01:11:48.201Z,87.15
2023-01-05T01:14:15.095Z,87.37
2023-01-05T01:16:42.626Z,87.15
2023-01-05T01:19:20.684Z,87.04
2023-01-05T01:21:47.859Z,87.17
2023-01-05T01:24:18.638Z,87.84
2023-01-05T01:26:45.092Z,87.49
2023-01-05T01:29:11.831Z,88.86
2023-01-05T01:31:38.688Z,88.05
2023-01-05T01:34:05.340Z,88.17
2023-01-05T01:36:32.072Z,88.19
2023-01-05T01:38:58.459Z,88.00
2023-01-05T01:41:24.877Z,87.94
2023-01-05T01:43:54.163Z,87.81
2023-01-05T01:46:22.306Z,87.84
2023-01-05T01:48:53.088Z,87.38
2023-01-05T01:51:31.701Z,87.62
2023-01-05T01:54:01.409Z,87.40
2023-01-05T01:56:33.623Z,87.07
2023-01-05T01:59:00.229Z,86.77
2023-01-05T02:01:26.776Z,86.84
2023-01-05T02:03:53.946Z,86.42
2023-01-05T02:06:20.434Z,86.24
2023-01-05T02:08:47.485Z,86.24
2023-01-05T02:11:32.668Z,85.99
2023-01-05T02:14:05.341Z,86.18
2023-01-05T02:16:51.792Z,85.99
2023-01-05T02:19:24.363Z,85.74
2023-01-05T02:21:59.304Z,85.82
2023-01-05T02:25:01.036Z,85.54
2023-01-05T02:27:37.607Z,84.90
2023-01-05T02:30:25.746Z,84.37
2023-01-05T02:33:17.711Z,84.40
2023-01-05T02:35:57.575Z,84.64
2023-01-05T02:38:42.447Z,84.29
2023-01-05T02:41:16.597Z,84.19
2023-01-05T02:43:45.197Z,84.58
2023-01-05T02:46:11.889Z,84.29
2023-01-05T02:48:40.193Z,84.13
2023-01-05T02:51:13.828Z,84.17
2023-01-05T02:53:47.383Z,84.40
2023-01-05T02:56:20.951Z,84.12
2023-01-05T02:58:56.449Z,84.78
2023-01-05T03:01:31.543Z,84.82
2023-01-05T03:04:01.734Z,84.24
2023-01-05T03:06:58.683Z,83.99
2023-01-05T03:09:29.309Z,84.22
2023-01-05T03:12:28.147Z,83.96
2023-01-05T03:15:00.090Z,84.03
2023-01-05T03:17:32.289Z,84.14
2023-01-05T03:19:59.706Z,84.44
2023-01-05T03:22:47.230Z,84.29
2023-01-05T03:25:35.564Z,83.77
2023-01-05T03:28:23.441Z,83.71
2023-01-05T03:31:25.569Z,83.90
2023-01-05T03:34:21.099Z,83.49
2023-01-05T03:36:56.007Z,83.15
2023-01-05T03:39:26.518Z,83.42
2023-01-05T03:41:54.499Z,83.20
2023-01-05T03:44:21.120Z,82.74
2023-01-05T03:46:47.606Z,82.81
2023-01-05T03:49:14.110Z,82.77
2023-01-05T03:51:42.205Z,82.49
2023-01-05T03:54:09.145Z,82.71
2023-01-05T03:56:35.611Z,82.99
2023-01-05T03:59:02.024Z,82.77
2023-01-05T04:01:28.483Z,82.47
2023-01-05T04:03:54.956Z,82.89
2023-01-05T04:06:21.367Z,83.44
2023-01-05T04:08:47.889Z,83.23
2023-01-05T04:11:17.962Z,83.71
2023-01-05T04:13:44.492Z,83.32
2023-01-05T04:16:11.312Z,83.97
2023-01-05T04:18:38.110Z,83.12
2023-01-05T04:21:05.683Z,83.74
2023-01-05T04:23:32.606Z,83.33
2023-01-05T04:25:59.382Z,83.53
2023-01-05T04:28:25.799Z,83.49
2023-01-05T04:30:54.703Z,83.82
2023-01-05T04:33:22.127Z,84.06
2023-01-05T04:35:48.990Z,84.16
2023-01-05T04:38:16.107Z,84.09
2023-01-05T04:40:42.488Z,84.12
2023-01-05T04:43:08.878Z,84.43
2023-01-05T04:45:35.309Z,84.22
2023-01-05T04:48:01.735Z,83.76
2023-01-05T04:50:29.531Z,83.57
2023-01-05T04:52:55.897Z,83.89
2023-01-05T04:55:22.333Z,84.62
2023-01-05T04:57:48.789Z,87.24
2023-01-05T05:00:16.472Z,88.84
2023-01-05T05:02:43.027Z,90.39
2023-01-05T05:05:09.956Z,92.43
2023-01-05T05:07:36.387Z,92.92
2023-01-05T05:10:02.906Z,93.30
2023-01-05T05:12:29.288Z,94.02
2023-01-05T05:14:55.681Z,94.37
2023-01-05T05:17:22.062Z,94.44
2023-01-05T05:19:48.566Z,94.52
2023-01-05T05:22:14.925Z,94.64
2023-01-05T05:24:41.401Z,94.64
2023-01-05T05:27:07.863Z,94.64
2023-01-05T05:29:34.250Z,94.52
2023-01-05T05:32:00.643Z,94.63
2023-01-05T05:34:27.075Z,94.22
2023-01-05T05:36:53.468Z,93.59
2023-01-05T05:39:20.569Z,93.23
2023-01-05T05:41:47.016Z,92.54
2023-01-05T05:44:13.476Z,92.52
2023-01-05T05:46:39.936Z,92.44
2023-01-05T05:49:07.131Z,91.36
2023-01-05T05:51:33.642Z,90.27
2023-01-05T05:54:00.255Z,90.01
2023-01-05T05:56:26.641Z,88.82
2023-01-05T05:58:59.048Z,89.09
2023-01-05T06:01:27.746Z,89.13
2023-01-05T06:03:54.416Z,88.97
2023-01-05T06:06:20.907Z,88.92
2023-01-05T06:08:47.409Z,88.81
2023-01-05T06:11:14.061Z,88.52
2023-01-05T06:13:41.067Z,87.87
2023-01-05T06:16:07.691Z,87.88
2023-01-05T06:18:34.215Z,87.70
2023-01-05T06:21:01.988Z,88.39
2023-01-05T06:23:28.589Z,88.44
2023-01-05T06:25:55.020Z,87.64
2023-01-05T06:28:21.436Z,86.82
2023-01-05T06:30:48.425Z,86.21
2023-01-05T06:33:14.843Z,85.56
2023-01-05T06:35:41.288Z,86.33
2023-01-05T06:38:07.749Z,86.28
2023-01-05T06:40:34.255Z,87.63
2023-01-05T06:43:00.667Z,89.68
2023-01-05T06:45:27.226Z,90.28
2023-01-05T06:47:53.695Z,91.61
2023-01-05T06:50:20.056Z,91.34
2023-01-05T06:52:46.469Z,92.07
2023-01-05T06:55:13.124Z,92.56
2023-01-05T06:57:39.602Z,92.59
2023-01-05T07:00:10.651Z,92.55
2023-01-05T07:02:37.791Z,92.72
2023-01-05T07:05:04.409Z,92.61
2023-01-05T07:07:30.831Z,92.26
2023-01-05T07:09:57.417Z,92.76
2023-01-05T07:12:23.917Z,92.62
2023-01-05T07:14:55.742Z,93.00
2023-01-05T07:17:23.924Z,92.52
2023-01-05T07:19:50.308Z,92.92
2023-01-05T07:22:16.936Z,92.40
2023-01-05T07:24:43.428Z,92.69
2023-01-05T07:27:10.199Z,92.76
2023-01-05T07:29:37.022Z,93.32
2023-01-05T07:32:03.845Z,92.93
2023-01-05T07:34:30.253Z,92.17
2023-01-05T07:36:56.715Z,92.95
2023-01-05T07:39:23.178Z,92.81
2023-01-05T07:41:49.693Z,92.21
2023-01-05T07:44:16.330Z,90.70
2023-01-05T07:46:42.733Z,90.21
2023-01-05T07:49:09.127Z,90.57
2023-01-05T07:51:35.770Z,88.61
2023-01-05T07:54:02.179Z,87.64
2023-01-05T07:56:28.595Z,87.56
2023-01-05T07:58:55.084Z,87.19
2023-01-05T08:01:21.759Z,87.07
2023-01-05T08:03:48.420Z,87.23
2023-01-05T08:06:18.415Z,85.80
2023-01-05T08:08:45.306Z,86.04
2023-01-05T08:11:15.420Z,85.65
2023-01-05T08:14:02.646Z,85.25
2023-01-05T08:16:32.946Z,85.15
2023-01-05T08:19:00.135Z,85.18
2023-01-05T08:21:26.859Z,84.92
2023-01-05T08:23:53.855Z,85.32
2023-01-05T08:26:23.056Z,85.08
2023-01-05T08:28:50.839Z,84.79
2023-01-05T08:31:24.909Z,84.55
2023-01-05T08:33:51.850Z,84.22
2023-01-05T08:36:19.985Z,83.87
2023-01-05T08:38:50.316Z,84.45
2023-01-05T08:41:19.097Z,84.59
2023-01-05T08:43:53.145Z,84.20
2023-01-05T08:46:21.615Z,84.09
2023-01-05T08:48:49.686Z,84.91
2023-01-05T08:51:16.191Z,84.04
2023-01-05T08:53:42.756Z,84.55
2023-01-05T08:56:12.683Z,85.08
2023-01-05T08:58:40.343Z,84.26
2023-01-05T09:01:12.494Z,83.20
2023-01-05T09:03:39.641Z,82.66
2023-01-05T09:06:09.686Z,82.04
2023-01-05T09:08:36.249Z,81.69
2023-01-05T09:11:23.349Z,81.84
2023-01-05T09:13:52.547Z,81.66
2023-01-05T09:16:42.984Z,82.44
2023-01-05T09:19:09.489Z,82.76
2023-01-05T09:21:35.992Z,82.64
2023-01-05T09:24:02.456Z,82.34
2023-01-05T09:26:28.832Z,83.02
2023-01-05T09:28:55.291Z,82.94
2023-01-05T09:31:22.952Z,83.23
2023-01-05T09:33:49.706Z,84.82
2023-01-05T09:36:18.058Z,84.74
2023-01-05T09:38:50.299Z,83.32
2023-01-05T09:41:22.938Z,82.59
2023-01-05T09:43:53.330Z,81.79
2023-01-05T09:46:23.424Z,81.01
2023-01-05T09:48:53.506Z,80.00
2023-01-05T09:51:19.981Z,78.36
2023-01-05T09:53:46.698Z,78.31
2023-01-05T09:56:59.033Z,79.33
2023-01-05T09:59:26.473Z,77.17
2023-01-05T10:01:55.871Z,76.38
2023-01-05T10:04:30.384Z,76.00
2023-01-05T10:07:05.428Z,75.55
2023-01-05T10:09:39.292Z,75.02
2023-01-05T10:12:27.495Z,74.87
2023-01-05T10:15:14.973Z,74.84
2023-01-05T10:17:43.679Z,74.84
2023-01-05T10:20:16.569Z,75.49
2023-01-05T10:22:57.579Z,74.34
2023-01-05T10:25:34.903Z,72.89
2023-01-05T10:28:39.183Z,72.30
2023-01-05T10:31:22.740Z,71.11
2023-01-05T10:33:56.740Z,68.81
2023-01-05T10:37:06.875Z,66.91
2023-01-05T10:40:02.802Z,66.75
2023-01-05T10:42:57.176Z,65.72
2023-01-05T10:45:27.227Z,68.48
2023-01-05T10:47:53.859Z,70.62
2023-01-05T10:50:33.263Z,70.50
2023-01-05T10:53:05.540Z,69.64
2023-01-05T10:55:32.334Z,69.09
2023-01-05T10:57:58.776Z,69.49
2023-01-05T11:00:40.817Z,69.46
2023-01-05T11:03:14.626Z,69.53
2023-01-05T11:05:47.447Z,69.91
2023-01-05T11:08:17.553Z,69.61
2023-01-05T11:10:53.390Z,69.84
2023-01-05T11:13:30.647Z,69.79
2023-01-05T11:16:02.113Z,69.10
2023-01-05T11:18:31.539Z,68.94
2023-01-05T11:21:13.550Z,68.68
2023-01-05T11:23:54.648Z,68.62
2023-01-05T11:26:30.829Z,68.82
2023-01-05T11:29:09.752Z,68.20
2023-01-05T11:31:42.883Z,68.09
2023-01-05T11:34:37.657Z,67.86
2023-01-05T11:37:10.048Z,67.54
2023-01-05T11:39:50.980Z,67.34
2023-01-05T11:42:26.070Z,66.95
2023-01-05T11:44:55.785Z,67.96
2023-01-05T11:47:25.943Z,67.61
2023-01-05T11:50:24.901Z,66.92
2023-01-05T11:52:57.097Z,67.81
2023-01-05T11:55:34.039Z,67.21
2023-01-05T11:58:23.650Z,67.08
2023-01-05T12:01:11.968Z,66.94
2023-01-05T12:03:38.916Z,66.54
2023-01-05T12:06:34.613Z,67.18
2023-01-05T12:09:40.306Z,66.92
2023-01-05T12:12:35.661Z,66.86
2023-01-05T12:15:27.257Z,66.83
2023-01-05T12:18:24.519Z,66.40
2023-01-05T12:21:26.059Z,66.69
2023-01-05T12:24:07.543Z,66.74
2023-01-05T12:26:45.445Z,66.64
2023-01-05T12:36:06.996Z,66.96
2023-01-05T12:38:52.039Z,66.82
2023-01-05T12:41:27.698Z,67.54
2023-01-05T12:44:38.891Z,67.92
2023-01-05T12:47:14.572Z,67.76
2023-01-05T12:49:50.711Z,67.19
2023-01-05T12:52:41.921Z,67.27
2023-01-05T12:55:16.948Z,67.37
2023-01-05T12:57:48.775Z,67.27
2023-01-05T13:00:18.917Z,67.64
2023-01-05T13:03:00.307Z,67.28
2023-01-05T13:05:41.699Z,68.26
2023-01-05T13:08:20.625Z,67.66
2023-01-05T13:11:00.073Z,67.89
2023-01-05T13:13:36.148Z,67.89
2023-01-05T13:16:08.619Z,68.55
2023-01-05T13:18:42.118Z,67.33
2023-01-05T13:21:14.798Z,67.21
2023-01-05T13:23:47.215Z,66.87
2023-01-05T13:26:18.768Z,66.90
2023-01-05T13:28:55.535Z,67.50
2023-01-05T13:31:25.060Z,67.15
2023-01-05T13:34:28.490Z,67.72
2023-01-05T13:37:10.292Z,66.62
2023-01-05T13:39:52.002Z,66.77
2023-01-05T13:42:46.294Z,66.59
2023-01-05T13:45:33.004Z,66.77
2023-01-05T13:49:03.368Z,67.45
2023-01-05T13:52:05.450Z,67.02
2023-01-05T13:55:00.054Z,66.47
2023-01-05T13:57:35.093Z,67.34
2023-01-05T14:00:10.945Z,67.64
2023-01-05T14:02:42.551Z,67.87
2023-01-05T14:05:24.481Z,67.64
2023-01-05T14:07:54.161Z,68.04
2023-01-05T14:10:38.418Z,68.50
2023-01-05T14:13:06.968Z,68.32
2023-01-05T14:15:36.516Z,68.53
2023-01-05T14:18:52.226Z,68.62
2023-01-05T14:21:51.166Z,69.09
2023-01-05T14:24:32.268Z,68.55
2023-01-05T14:27:09.037Z,69.10
2023-01-05T14:29:44.647Z,69.97
2023-01-05T14:32:14.031Z,69.87
2023-01-05T14:34:49.881Z,69.77
2023-01-05T14:37:23.665Z,70.18
2023-01-05T14:40:00.412Z,69.72
2023-01-05T14:42:40.761Z,69.76
2023-01-05T14:45:22.214Z,69.53
2023-01-05T14:47:51.542Z,69.96
2023-01-05T14:50:38.467Z,69.86
2023-01-05T14:53:10.844Z,69.71
2023-01-05T14:56:01.610Z,69.48
2023-01-05T14:58:37.098Z,69.79
2023-01-05T15:01:15.620Z,69.39
2023-01-05T15:04:03.531Z,69.09
2023-01-05T15:06:41.292Z,69.59
2023-01-05T15:09:48.129Z,69.32
2023-01-05T15:12:32.518Z,70.09
2023-01-05T15:15:31.468Z,69.98
2023-01-05T15:18:25.657Z,69.67
2023-01-05T15:21:15.165Z,69.27
2023-01-05T15:24:10.086Z,69.52
2023-01-05T15:26:54.653Z,70.00
2023-01-05T15:29:59.087Z,70.48
2023-01-05T15:32:34.332Z,70.74
2023-01-05T15:35:09.268Z,70.88
2023-01-05T15:37:37.984Z,70.56
2023-01-05T15:40:09.118Z,70.70
2023-01-05T15:42:38.436Z,70.67
2023-01-05T15:45:09.149Z,70.29
2023-01-05T15:47:39.840Z,70.17
2023-01-05T15:50:15.965Z,70.09
2023-01-05T15:52:53.240Z,70.66
2023-01-05T15:55:19.675Z,70.40
2023-01-05T15:58:04.570Z,70.44
2023-01-05T16:00:33.494Z,70.24
2023-01-05T16:03:00.030Z,70.70
2023-01-05T16:05:30.358Z,70.28
2023-01-05T16:08:08.275Z,70.55
2023-01-05T16:10:46.823Z,70.79
2023-01-05T16:13:19.187Z,71.17
2023-01-05T16:15:50.359Z,70.91
2023-01-05T16:18:23.161Z,70.99
2023-01-05T16:20:52.291Z,70.79
2023-01-05T16:23:40.353Z,71.28
2023-01-05T16:26:12.879Z,71.91
2023-01-05T16:28:40.382Z,71.81
2023-01-05T16:31:14.219Z,72.17
2023-01-05T16:33:40.689Z,72.06
2023-01-05T16:36:33.446Z,72.47
2023-01-05T16:39:13.660Z,72.11
2023-01-05T16:42:00.515Z,72.21
2023-01-05T16:44:30.873Z,72.49
2023-01-05T16:47:07.353Z,72.65
2023-01-05T16:49:41.241Z,72.35
2023-01-05T16:52:24.296Z,72.54
2023-01-05T16:55:27.631Z,73.27
2023-01-05T16:57:55.483Z,72.97
2023-01-05T17:00:32.584Z,73.22
2023-01-05T17:03:03.420Z,73.46
2023-01-05T17:05:32.573Z,73.17
2023-01-05T17:08:19.777Z,72.93
2023-01-05T17:10:47.059Z,72.84
2023-01-05T17:13:20.764Z,72.86
2023-01-05T17:15:48.851Z,72.89
2023-01-05T17:18:26.709Z,73.47
2023-01-05T17:20:55.196Z,74.02
2023-01-05T17:23:24.941Z,73.84
2023-01-05T17:28:22.313Z,73.77
2023-01-05T17:30:48.944Z,74.46
2023-01-05T17:33:15.444Z,74.39
2023-01-05T17:35:42.142Z,74.43
2023-01-05T17:38:11.179Z,74.55
2023-01-05T17:40:38.383Z,74.58
2023-01-05T17:43:05.502Z,74.80
2023-01-05T17:45:32.717Z,75.50
2023-01-05T17:47:59.554Z,75.41
2023-01-05T17:53:01.905Z,75.92
2023-01-05T17:55:29.095Z,76.06
2023-01-05T17:57:57.731Z,76.23
2023-01-05T18:00:26.263Z,76.52
2023-01-05T18:02:54.015Z,76.22
2023-01-05T18:05:21.744Z,76.32
2023-01-05T18:07:49.266Z,75.79
2023-01-05T18:10:25.240Z,75.69
2023-01-05T18:12:53.462Z,75.82
2023-01-05T18:15:19.911Z,76.04
2023-01-05T18:17:46.442Z,75.35
2023-01-05T18:20:15.152Z,75.35
2023-01-05T18:22:42.575Z,75.77
2023-01-05T18:25:12.368Z,75.88
2023-01-05T18:27:39.461Z,75.57
2023-01-05T18:30:07.025Z,75.17
2023-01-05T18:32:33.605Z,75.92
2023-01-05T18:35:03.081Z,75.62
2023-01-05T18:37:32.426Z,75.84
2023-01-05T18:39:58.907Z,75.40
2023-01-05T18:42:26.543Z,75.90
2023-01-05T18:44:52.965Z,75.64
2023-01-05T18:47:19.376Z,76.15
2023-01-05T18:49:45.883Z,75.83
2023-01-05T18:52:12.327Z,76.04
2023-01-05T18:54:38.899Z,76.05
2023-01-05T18:57:05.374Z,75.76
2023-01-05T18:59:32.072Z,75.99
2023-01-05T19:01:59.016Z,75.54
2023-01-05T19:04:25.737Z,75.58
2023-01-05T19:06:52.166Z,75.32
2023-01-05T19:09:18.651Z,75.24
2023-01-05T19:11:47.655Z,75.29
2023-01-05T19:14:15.754Z,75.94
2023-01-05T19:16:42.391Z,76.68
2023-01-05T19:19:12.254Z,76.77
2023-01-05T19:21:41.868Z,76.63
2023-01-05T19:24:14.752Z,76.94
2023-01-05T19:26:41.325Z,76.55
2023-01-05T19:29:07.809Z,76.03
2023-01-05T19:31:34.649Z,76.24
2023-01-05T19:34:01.235Z,75.60
2023-01-05T19:36:35.654Z,75.37
2023-01-05T19:39:10.841Z,75.47
2023-01-05T19:41:38.650Z,75.67
2023-01-05T19:44:05.088Z,75.33
2023-01-05T19:46:32.165Z,74.79
2023-01-05T19:49:00.451Z,74.72
2023-01-05T19:51:29.283Z,73.96
2023-01-05T19:53:58.193Z,73.69
2023-01-05T19:56:27.030Z,73.62
2023-01-05T19:58:56.188Z,74.49
2023-01-05T20:01:24.304Z,73.77
2023-01-05T20:03:51.530Z,73.59
2023-01-05T20:06:29.560Z,73.52
2023-01-05T20:08:59.742Z,73.07
2023-01-05T20:11:40.884Z,73.92
2023-01-05T20:14:26.890Z,73.66
2023-01-05T20:16:59.891Z,73.92
2023-01-05T20:19:28.567Z,73.76
2023-01-05T20:21:56.958Z,74.30
2023-01-05T20:24:26.112Z,74.86
2023-01-05T20:26:56.280Z,74.95
2023-01-05T20:29:24.125Z,76.07
2023-01-05T20:31:57.002Z,75.84
2023-01-05T20:34:28.050Z,75.90
2023-01-05T20:36:54.736Z,75.77
2023-01-05T20:39:22.832Z,78.27
2023-01-05T20:41:52.326Z,77.39
2023-01-05T20:44:23.148Z,77.35
2023-01-05T20:46:51.156Z,75.79
2023-01-05T20:49:18.213Z,75.37
2023-01-05T20:51:44.693Z,76.22
2023-01-05T20:54:11.872Z,74.91
2023-01-05T20:56:41.766Z,75.37
2023-01-05T20:59:12.969Z,74.99
2023-01-05T21:01:39.947Z,74.99
2023-01-05T21:04:07.323Z,74.81
2023-01-05T21:06:34.500Z,73.93
2023-01-05T21:09:01.570Z,74.87
2023-01-05T21:11:29.319Z,75.26
2023-01-05T21:13:57.069Z,73.94
2023-01-05T21:16:32.196Z,73.40
2023-01-05T21:19:01.239Z,74.05
2023-01-05T21:21:29.398Z,73.85
2023-01-05T21:23:56.035Z,73.61
2023-01-05T21:26:23.440Z,72.85
2023-01-05T21:28:51.842Z,73.27
2023-01-05T21:31:24.476Z,73.36
2023-01-05T21:33:51.508Z,72.67
2023-01-05T21:36:26.669Z,72.84
2023-01-05T21:39:01.682Z,73.30
2023-01-05T21:41:50.540Z,73.97
2023-01-05T21:44:18.273Z,73.40
2023-01-05T21:46:44.802Z,72.09
2023-01-05T21:49:12.314Z,72.41
2023-01-05T21:51:57.890Z,71.59
2023-01-05T21:54:43.802Z,71.70
2023-01-05T21:57:10.447Z,72.17
2023-01-05T21:59:36.965Z,72.54
2023-01-05T22:02:03.535Z,73.24
2023-01-05T22:04:30.046Z,74.34
2023-01-05T22:06:57.144Z,74.14
2023-01-05T22:09:23.608Z,75.12
2023-01-05T22:11:50.103Z,75.27
2023-01-05T22:14:16.700Z,74.58
2023-01-05T22:16:43.382Z,75.59
2023-01-05T22:19:10.971Z,75.09
2023-01-05T22:21:37.733Z,75.84
2023-01-05T22:24:04.636Z,77.14
2023-01-05T22:26:31.078Z,77.87
2023-01-05T22:28:57.642Z,78.43
2023-01-05T22:31:28.154Z,76.86
2023-01-05T22:33:57.447Z,77.22
2023-01-05T22:36:24.883Z,77.37
2023-01-05T22:38:52.975Z,76.54
2023-01-05T22:41:27.036Z,75.59
2023-01-05T22:43:53.799Z,75.82
2023-01-05T22:46:22.910Z,75.75
2023-01-05T22:48:51.322Z,75.06
2023-01-05T22:51:38.215Z,75.54
2023-01-05T22:54:05.140Z,76.32
2023-01-05T22:56:33.367Z,78.17
2023-01-05T22:59:00.888Z,78.77
2023-01-05T23:01:38.911Z,78.67
2023-01-05T23:04:06.572Z,79.39
2023-01-05T23:06:33.106Z,80.21
2023-01-05T23:09:00.312Z,80.68
2023-01-05T23:11:34.960Z,80.67
2023-01-05T23:14:03.995Z,79.66
2023-01-05T23:16:30.805Z,80.17
2023-01-05T23:18:57.537Z,80.64
2023-01-05T23:21:25.302Z,80.87
2023-01-05T23:23:53.534Z,79.92
2023-01-05T23:26:20.656Z,79.11
2023-01-05T23:28:47.819Z,79.43
2023-01-05T23:31:16.197Z,80.12
2023-01-05T23:33:43.725Z,79.77
2023-01-05T23:36:11.661Z,80.44
2023-01-05T23:38:38.575Z,81.84
2023-01-05T23:41:06.905Z,83.42
2023-01-05T23:43:35.585Z,82.94
2023-01-05T23:46:04.818Z,83.56
2023-01-05T23:48:31.502Z,83.94
2023-01-05T23:50:58.148Z,83.42
2023-01-05T23:53:25.458Z,83.65
2023-01-05T23:55:52.363Z,83.76
2023-01-05T23:58:18.816Z,84.83
